createdAt,value
2022-11-13T00:01:11.640Z,18.30
2022-11-13T00:03:37.982Z,17.65
2022-11-13T00:06:04.693Z,16.77
2022-11-13T00:08:31.444Z,17.40
2022-11-13T00:11:04.900Z,17.27
2022-11-13T00:13:31.215Z,17.48
2022-11-13T00:15:58.248Z,17.38
2022-11-13T00:18:24.707Z,16.65
2022-11-13T00:20:51.092Z,17.75
2022-11-13T00:23:17.474Z,17.15
2022-11-13T00:25:43.812Z,17.17
2022-11-13T00:28:10.175Z,17.17
2022-11-13T00:30:36.435Z,17.42
2022-11-13T00:33:02.704Z,16.63
2022-11-13T00:35:28.985Z,17.08
2022-11-13T00:37:55.315Z,16.45
2022-11-13T00:40:21.618Z,16.75
2022-11-13T00:42:47.850Z,15.50
2022-11-13T00:45:14.254Z,16.50
2022-11-13T00:47:40.513Z,16.67
2022-11-13T00:50:06.869Z,17.25
2022-11-13T00:52:33.175Z,16.33
2022-11-13T00:54:59.502Z,15.13
2022-11-13T00:57:25.769Z,15.55
2022-11-13T00:59:52.064Z,15.57
2022-11-13T01:02:18.322Z,16.73
2022-11-13T01:04:44.627Z,15.52
2022-11-13T01:07:11.025Z,15.43
2022-11-13T01:09:37.454Z,14.80
2022-11-13T01:12:03.904Z,15.45
2022-11-13T01:14:30.192Z,15.45
2022-11-13T01:16:56.480Z,14.98
2022-11-13T01:19:22.725Z,13.98
2022-11-13T01:21:48.975Z,14.10
2022-11-13T01:24:15.335Z,14.27
2022-11-13T01:26:41.736Z,14.20
2022-11-13T01:29:10.121Z,12.85
2022-11-13T01:31:36.541Z,13.70
2022-11-13T01:34:02.812Z,13.05
2022-11-13T01:36:29.373Z,12.82
2022-11-13T01:38:55.797Z,12.20
2022-11-13T01:41:24.083Z,12.70
2022-11-13T01:43:50.823Z,12.70
2022-11-13T01:46:21.986Z,11.10
2022-11-13T01:48:51.214Z,11.30
2022-11-13T01:51:30.017Z,11.32
2022-11-13T01:53:57.269Z,11.30
2022-11-13T01:56:23.650Z,11.65
2022-11-13T01:59:03.887Z,11.30
2022-11-13T02:01:30.282Z,10.80
2022-11-13T02:03:56.616Z,11.05
2022-11-13T02:06:23.624Z,10.93
2022-11-13T02:08:50.489Z,11.50
2022-11-13T02:11:16.951Z,10.60
2022-11-13T02:13:43.657Z,11.30
2022-11-13T02:16:10.736Z,10.95
2022-11-13T02:18:38.128Z,10.88
2022-11-13T02:21:09.080Z,10.15
2022-11-13T02:23:41.746Z,11.05
2022-11-13T02:26:09.587Z,11.35
2022-11-13T02:28:35.856Z,11.07
2022-11-13T02:31:09.654Z,10.32
2022-11-13T02:33:36.301Z,10.35
2022-11-13T02:36:02.926Z,10.60
2022-11-13T02:38:29.535Z,11.00
2022-11-13T02:40:56.102Z,10.15
2022-11-13T02:43:22.343Z,10.38
2022-11-13T02:45:48.623Z,10.45
2022-11-13T02:48:14.887Z,9.93
2022-11-13T02:50:41.742Z,10.25
2022-11-13T02:53:08.187Z,10.27
2022-11-13T02:55:34.461Z,10.35
2022-11-13T02:58:00.986Z,10.30
2022-11-13T03:00:27.356Z,9.88
2022-11-13T03:02:53.701Z,10.45
2022-11-13T03:05:19.937Z,9.75
2022-11-13T03:07:46.202Z,10.07
2022-11-13T03:10:12.824Z,10.65
2022-11-13T03:12:40.794Z,10.38
2022-11-13T03:15:07.678Z,11.23
2022-11-13T03:17:34.101Z,10.20
2022-11-13T03:20:00.813Z,10.50
2022-11-13T03:22:27.862Z,9.75
2022-11-13T03:24:54.130Z,10.80
2022-11-13T03:27:20.419Z,10.60
2022-11-13T03:29:46.761Z,10.90
2022-11-13T03:32:13.091Z,10.32
2022-11-13T03:34:39.520Z,10.30
2022-11-13T03:37:06.133Z,10.63
2022-11-13T03:39:32.448Z,10.05
2022-11-13T03:41:58.736Z,10.35
2022-11-13T03:44:25.006Z,10.68
2022-11-13T03:46:51.284Z,10.80
2022-11-13T03:49:17.566Z,11.10
2022-11-13T03:51:43.835Z,10.25
2022-11-13T03:54:10.379Z,10.68
2022-11-13T03:56:36.819Z,10.93
2022-11-13T03:59:03.154Z,10.77
2022-11-13T04:01:29.492Z,10.20
2022-11-13T04:03:55.801Z,10.13
2022-11-13T04:06:22.039Z,10.90
2022-11-13T04:08:48.337Z,10.48
2022-11-13T04:11:14.665Z,10.52
2022-11-13T04:13:41.002Z,9.15
2022-11-13T04:16:07.497Z,10.25
2022-11-13T04:18:33.800Z,10.55
2022-11-13T04:21:00.773Z,9.40
2022-11-13T04:23:27.157Z,10.50
2022-11-13T04:25:53.484Z,10.43
2022-11-13T04:28:19.815Z,10.63
2022-11-13T04:30:46.115Z,10.77
2022-11-13T04:33:13.092Z,10.00
2022-11-13T04:35:41.854Z,10.02
2022-11-13T04:38:08.164Z,10.02
2022-11-13T04:40:34.425Z,9.88
2022-11-13T04:43:00.672Z,10.60
2022-11-13T04:45:27.560Z,10.02
2022-11-13T04:47:53.850Z,10.35
2022-11-13T04:50:20.151Z,10.07
2022-11-13T04:52:46.555Z,10.13
2022-11-13T04:55:13.361Z,9.80
2022-11-13T04:57:39.707Z,9.80
2022-11-13T05:00:06.895Z,10.30
2022-11-13T05:02:33.675Z,10.52
2022-11-13T05:05:04.731Z,10.38
2022-11-13T05:07:31.588Z,10.25
2022-11-13T05:09:57.871Z,11.00
2022-11-13T05:12:24.121Z,9.98
2022-11-13T05:14:50.407Z,10.43
2022-11-13T05:17:16.738Z,10.50
2022-11-13T05:19:43.007Z,10.27
2022-11-13T05:22:09.473Z,10.00
2022-11-13T05:24:35.728Z,9.55
2022-11-13T05:27:01.980Z,10.68
2022-11-13T05:29:28.237Z,9.90
2022-11-13T05:31:54.524Z,10.30
2022-11-13T05:34:20.819Z,10.55
2022-11-13T05:36:47.116Z,9.48
2022-11-13T05:39:13.470Z,9.77
2022-11-13T05:41:39.803Z,9.85
2022-11-13T05:44:06.114Z,9.55
2022-11-13T05:46:32.391Z,9.95
2022-11-13T05:49:01.346Z,9.88
2022-11-13T05:51:29.529Z,9.45
2022-11-13T05:53:55.956Z,10.05
2022-11-13T05:56:33.043Z,9.82
2022-11-13T05:59:00.172Z,9.77
2022-11-13T06:01:35.915Z,10.40
2022-11-13T06:04:02.786Z,10.05
2022-11-13T06:06:30.034Z,10.40
2022-11-13T06:08:56.932Z,9.73
2022-11-13T06:11:24.475Z,10.18
2022-11-13T06:13:51.207Z,10.02
2022-11-13T06:16:21.656Z,10.13
2022-11-13T06:18:48.750Z,9.88
2022-11-13T06:21:19.682Z,9.13
2022-11-13T06:23:45.974Z,9.23
2022-11-13T06:26:13.808Z,9.80
2022-11-13T06:28:40.592Z,9.10
2022-11-13T06:31:09.274Z,8.93
2022-11-13T06:33:36.157Z,8.70
2022-11-13T06:36:03.323Z,9.48
2022-11-13T06:38:30.756Z,9.15
2022-11-13T06:40:57.511Z,11.10
2022-11-13T06:43:23.832Z,9.98
2022-11-13T06:45:50.164Z,9.52
2022-11-13T06:48:16.415Z,9.30
2022-11-13T06:50:48.104Z,9.38
2022-11-13T06:53:14.791Z,9.32
2022-11-13T06:55:44.703Z,9.40
2022-11-13T06:58:11.049Z,8.65
2022-11-13T07:00:40.176Z,9.18
2022-11-13T07:03:07.199Z,9.65
2022-11-13T07:05:36.168Z,10.75
2022-11-13T07:08:02.432Z,10.18
2022-11-13T07:10:28.739Z,9.27
2022-11-13T07:12:55.134Z,9.75
2022-11-13T07:15:21.504Z,9.40
2022-11-13T07:17:47.746Z,9.27
2022-11-13T07:20:14.034Z,9.30
2022-11-13T07:22:40.503Z,8.70
2022-11-13T07:25:07.306Z,8.85
2022-11-13T07:27:33.732Z,10.45
2022-11-13T07:30:03.528Z,9.77
2022-11-13T07:32:30.385Z,9.27
2022-11-13T07:34:56.665Z,9.32
2022-11-13T07:37:22.935Z,10.30
2022-11-13T07:39:49.479Z,9.35
2022-11-13T07:42:15.757Z,9.23
2022-11-13T07:44:54.682Z,9.13
2022-11-13T07:47:21.459Z,8.98
2022-11-13T07:49:47.756Z,9.43
2022-11-13T07:52:14.183Z,8.57
2022-11-13T07:54:40.982Z,9.00
2022-11-13T07:57:07.471Z,9.73
2022-11-13T07:59:33.786Z,9.40
2022-11-13T08:02:00.132Z,9.93
2022-11-13T08:04:26.515Z,9.52
2022-11-13T08:06:52.830Z,10.15
2022-11-13T08:09:19.256Z,11.02
2022-11-13T08:11:45.555Z,11.45
2022-11-13T08:14:11.924Z,10.95
2022-11-13T08:16:38.433Z,10.32
2022-11-13T08:19:04.793Z,10.32
2022-11-13T08:21:31.098Z,11.32
2022-11-13T08:23:57.390Z,11.25
2022-11-13T08:26:23.800Z,11.90
2022-11-13T08:28:50.125Z,12.32
2022-11-13T08:31:16.724Z,12.55
2022-11-13T08:33:43.139Z,12.10
2022-11-13T08:36:10.223Z,12.07
2022-11-13T08:38:37.043Z,11.32
2022-11-13T08:41:08.670Z,12.43
2022-11-13T08:43:35.881Z,12.88
2022-11-13T08:46:02.208Z,13.13
2022-11-13T08:48:28.736Z,12.43
2022-11-13T08:50:57.635Z,12.65
2022-11-13T08:53:24.555Z,10.68
2022-11-13T08:55:51.099Z,12.35
2022-11-13T08:58:17.519Z,12.15
2022-11-13T09:00:43.857Z,12.18
2022-11-13T09:03:12.054Z,11.55
2022-11-13T09:05:38.558Z,12.13
2022-11-13T09:08:05.325Z,11.63
2022-11-13T09:10:31.634Z,12.20
2022-11-13T09:12:58.571Z,12.10
2022-11-13T09:15:25.362Z,11.50
2022-11-13T09:17:51.773Z,12.30
2022-11-13T09:20:22.441Z,10.88
2022-11-13T09:22:49.338Z,11.50
2022-11-13T09:25:15.659Z,11.20
2022-11-13T09:27:42.199Z,11.77
2022-11-13T09:30:09.297Z,11.23
2022-11-13T09:32:35.860Z,11.80
2022-11-13T09:35:02.107Z,12.73
2022-11-13T09:37:28.340Z,11.95
2022-11-13T09:39:54.652Z,11.93
2022-11-13T09:42:22.413Z,11.82
2022-11-13T09:44:51.411Z,10.98
2022-11-13T09:47:21.381Z,11.20
2022-11-13T09:49:54.206Z,11.50
2022-11-13T09:52:23.613Z,10.63
2022-11-13T09:54:50.041Z,11.68
2022-11-13T09:57:26.500Z,10.95
2022-11-13T09:59:59.195Z,12.48
2022-11-13T10:02:37.583Z,11.65
2022-11-13T10:05:22.342Z,10.90
2022-11-13T10:08:12.093Z,12.68
2022-11-13T10:10:56.170Z,10.85
2022-11-13T10:13:25.328Z,11.63
2022-11-13T10:15:54.325Z,11.88
2022-11-13T10:18:29.545Z,11.43
2022-11-13T10:21:09.663Z,11.00
2022-11-13T10:23:37.860Z,11.07
2022-11-13T10:26:17.882Z,10.25
2022-11-13T10:28:50.448Z,11.90
2022-11-13T10:31:17.986Z,11.32
2022-11-13T10:33:44.254Z,9.93
2022-11-13T10:36:15.018Z,10.05
2022-11-13T10:38:49.991Z,10.40
2022-11-13T10:41:17.725Z,10.10
2022-11-13T10:43:59.859Z,9.93
2022-11-13T10:46:27.012Z,9.50
2022-11-13T10:48:53.343Z,9.25
2022-11-13T10:51:26.969Z,8.93
2022-11-13T10:53:54.215Z,8.88
2022-11-13T10:56:28.426Z,8.85
2022-11-13T10:59:00.563Z,8.15
2022-11-13T11:01:26.912Z,8.20
2022-11-13T11:03:53.329Z,8.82
2022-11-13T11:06:19.704Z,8.13
2022-11-13T11:08:45.991Z,7.90
2022-11-13T11:11:35.060Z,8.00
2022-11-13T11:14:24.410Z,8.00
2022-11-13T11:16:52.271Z,8.00
2022-11-13T11:19:22.223Z,7.78
2022-11-13T11:21:50.697Z,7.25
2022-11-13T11:24:28.468Z,7.35
2022-11-13T11:26:58.937Z,6.70
2022-11-13T11:29:28.801Z,7.70
2022-11-13T11:32:05.408Z,7.13
2022-11-13T11:34:33.645Z,6.50
2022-11-13T11:37:12.931Z,6.45
2022-11-13T11:39:42.274Z,5.55
2022-11-13T11:42:27.767Z,6.13
2022-11-13T11:44:57.718Z,6.20
2022-11-13T11:47:24.021Z,6.65
2022-11-13T11:49:50.309Z,6.90
2022-11-13T11:52:35.473Z,6.75
2022-11-13T11:55:13.695Z,6.95
2022-11-13T11:57:46.088Z,6.15
2022-11-13T12:00:14.159Z,5.82
2022-11-13T12:02:54.220Z,5.97
2022-11-13T12:05:20.646Z,6.07
2022-11-13T12:07:54.413Z,6.32
2022-11-13T12:10:32.718Z,6.57
2022-11-13T12:13:06.726Z,6.78
2022-11-13T12:15:37.203Z,7.00
2022-11-13T12:18:23.868Z,5.85
2022-11-13T12:20:53.161Z,5.45
2022-11-13T12:23:22.472Z,5.45
2022-11-13T12:25:55.400Z,5.45
2022-11-13T12:28:29.694Z,5.13
2022-11-13T12:31:02.501Z,5.18
2022-11-13T12:33:28.759Z,5.15
2022-11-13T12:35:55.245Z,5.28
2022-11-13T12:38:57.097Z,5.20
2022-11-13T12:41:33.002Z,6.10
2022-11-13T12:44:17.532Z,5.10
2022-11-13T12:46:43.974Z,5.70
2022-11-13T12:49:25.949Z,5.45
2022-11-13T12:51:55.373Z,5.22
2022-11-13T12:54:27.418Z,4.57
2022-11-13T12:57:04.253Z,5.00
2022-11-13T12:59:32.269Z,4.53
2022-11-13T13:02:08.658Z,4.78
2022-11-13T13:04:37.953Z,4.10
2022-11-13T13:07:10.235Z,4.45
2022-11-13T13:09:44.369Z,4.00
2022-11-13T13:12:13.519Z,4.28
2022-11-13T13:14:43.175Z,4.60
2022-11-13T13:17:17.487Z,4.05
2022-11-13T13:19:43.734Z,4.13
2022-11-13T13:22:11.161Z,3.45
2022-11-13T13:24:38.574Z,4.15
2022-11-13T13:27:23.753Z,4.15
2022-11-13T13:29:50.049Z,3.72
2022-11-13T13:32:35.980Z,3.05
2022-11-13T13:37:47.024Z,2.63
2022-11-13T13:40:22.506Z,2.63
2022-11-13T13:45:25.216Z,3.00
2022-11-13T13:47:53.415Z,2.28
2022-11-13T13:50:21.215Z,2.40
2022-11-13T13:52:54.237Z,2.28
2022-11-13T13:55:42.354Z,2.28
2022-11-13T13:58:12.272Z,1.98
2022-11-13T14:00:48.764Z,2.38
2022-11-13T14:03:26.006Z,2.28
2022-11-13T14:05:52.323Z,2.15
2022-11-13T14:08:19.715Z,2.58
2022-11-13T14:10:46.822Z,2.03
2022-11-13T14:13:14.218Z,2.45
2022-11-13T14:15:40.838Z,2.00
2022-11-13T14:18:14.757Z,2.10
2022-11-13T14:20:41.301Z,2.30
2022-11-13T14:23:10.388Z,2.08
2022-11-13T14:25:36.735Z,2.25
2022-11-13T14:28:03.315Z,1.98
2022-11-13T14:30:30.367Z,1.88
2022-11-13T14:32:57.110Z,2.10
2022-11-13T14:35:25.383Z,2.40
2022-11-13T14:37:52.551Z,2.00
2022-11-13T14:40:30.850Z,2.13
2022-11-13T14:42:58.689Z,1.92
2022-11-13T14:45:29.271Z,1.85
2022-11-13T14:47:56.866Z,1.90
2022-11-13T14:50:23.332Z,2.00
2022-11-13T14:53:06.694Z,2.38
2022-11-13T14:55:34.435Z,2.30
2022-11-13T14:58:00.829Z,1.70
2022-11-13T15:00:37.552Z,5.18
2022-11-13T15:03:04.929Z,1.90
2022-11-13T15:05:31.553Z,2.38
2022-11-13T15:07:58.054Z,1.60
2022-11-13T15:10:26.465Z,2.05
2022-11-13T15:12:52.982Z,1.88
2022-11-13T15:15:21.149Z,1.60
2022-11-13T15:17:50.349Z,2.17
2022-11-13T15:20:18.170Z,1.60
2022-11-13T15:22:44.455Z,1.85
2022-11-13T15:25:14.875Z,2.15
2022-11-13T15:27:43.332Z,1.90
2022-11-13T15:30:10.303Z,2.10
2022-11-13T15:32:36.665Z,1.98
2022-11-13T15:35:03.906Z,2.38
2022-11-13T15:37:30.349Z,1.92
2022-11-13T15:39:56.691Z,2.45
2022-11-13T15:42:31.686Z,2.33
2022-11-13T15:44:57.989Z,2.22
2022-11-13T15:47:31.519Z,3.08
2022-11-13T15:50:16.487Z,2.90
2022-11-13T15:52:47.594Z,2.28
2022-11-13T15:55:22.463Z,2.92
2022-11-13T15:57:49.006Z,2.97
2022-11-13T16:00:16.364Z,3.13
2022-11-13T20:15:26.896Z,10.63
2022-11-13T20:17:53.170Z,11.35
2022-11-13T20:20:19.448Z,10.45
2022-11-13T20:22:45.769Z,10.27
2022-11-13T20:25:12.590Z,10.32
2022-11-13T20:27:41.910Z,10.35
2022-11-13T20:30:12.582Z,9.60
2022-11-13T20:32:39.160Z,10.80
2022-11-13T20:35:06.441Z,10.00
2022-11-13T20:37:32.790Z,10.85
2022-11-13T20:39:59.471Z,11.55
2022-11-13T20:42:25.713Z,11.68
2022-11-13T20:44:51.995Z,11.10
2022-11-13T20:47:18.252Z,11.77
2022-11-13T20:49:44.608Z,12.35
2022-11-13T20:52:12.431Z,12.55
2022-11-13T20:54:38.699Z,11.90
2022-11-13T20:57:04.948Z,13.18
2022-11-13T20:59:31.218Z,13.20
2022-11-13T21:01:57.561Z,11.95
2022-11-13T21:04:23.855Z,12.77
2022-11-13T21:06:50.204Z,12.43
2022-11-13T21:09:16.495Z,13.05
2022-11-13T21:11:43.409Z,12.30
2022-11-13T21:14:10.352Z,13.70
2022-11-13T21:16:36.862Z,11.75
2022-11-13T21:19:03.338Z,12.95
2022-11-13T21:21:30.175Z,12.70
2022-11-13T21:23:57.317Z,12.02
2022-11-13T21:26:24.198Z,12.43
2022-11-13T21:28:53.408Z,12.80
2022-11-13T21:31:20.846Z,12.32
2022-11-13T21:33:47.979Z,12.32
2022-11-13T21:36:15.593Z,12.40
2022-11-13T21:38:42.548Z,13.32
2022-11-13T21:41:22.055Z,12.30
2022-11-13T21:43:58.148Z,12.73
2022-11-13T21:46:25.489Z,12.65
2022-11-13T21:48:55.829Z,11.30
2022-11-13T21:51:22.079Z,12.63
2022-11-13T21:53:48.455Z,12.57
2022-11-13T21:56:16.092Z,12.40
2022-11-13T21:58:42.793Z,12.50
2022-11-13T22:01:09.605Z,11.68
2022-11-13T22:03:36.272Z,12.77
2022-11-13T22:06:22.275Z,12.63
2022-11-13T22:13:41.456Z,12.68
2022-11-13T22:16:09.056Z,12.45
2022-11-13T22:18:35.445Z,11.70
2022-11-13T22:21:05.609Z,12.90
2022-11-13T22:23:32.449Z,11.90
2022-11-13T22:26:06.151Z,11.80
2022-11-13T22:28:33.440Z,12.85
2022-11-13T22:31:00.221Z,12.13
2022-11-13T22:33:27.419Z,12.70
2022-11-13T22:35:53.855Z,13.27
2022-11-13T22:38:20.162Z,12.00
2022-11-13T22:40:46.423Z,11.65
2022-11-13T22:43:12.695Z,12.55
2022-11-13T22:45:38.967Z,12.77
2022-11-13T22:48:05.322Z,12.15
2022-11-13T22:50:31.587Z,11.70
2022-11-13T22:52:57.837Z,11.60
2022-11-13T22:55:24.076Z,12.07
2022-11-13T22:57:50.478Z,12.20
2022-11-13T23:00:16.981Z,11.75
2022-11-13T23:02:47.270Z,12.05
2022-11-13T23:05:13.890Z,11.93
2022-11-13T23:07:40.205Z,11.88
2022-11-13T23:10:06.937Z,11.75
2022-11-13T23:12:33.188Z,11.85
2022-11-13T23:14:59.467Z,12.65
2022-11-13T23:17:25.744Z,12.10
2022-11-13T23:19:51.993Z,12.27
2022-11-13T23:22:18.246Z,12.65
2022-11-13T23:24:44.539Z,12.70
2022-11-13T23:27:10.845Z,12.80
2022-11-13T23:29:37.376Z,11.68
2022-11-13T23:32:03.667Z,12.23
2022-11-13T23:34:53.091Z,13.20
2022-11-13T23:37:16.203Z,12.70
2022-11-13T23:39:42.533Z,13.73
2022-11-13T23:42:08.783Z,12.75
2022-11-13T23:44:35.035Z,12.95
2022-11-13T23:47:01.344Z,13.13
2022-11-13T23:49:27.610Z,13.75
2022-11-13T23:51:53.958Z,12.68
2022-11-13T23:54:20.191Z,12.93
2022-11-13T23:56:46.457Z,14.77
2022-11-13T23:59:12.715Z,15.10
